sensor_id;sensor_type;location;lat;lon;timestamp;P1;durP1;ratioP1;P2;durP2;ratioP2
25950;SDS011;13748;52.240;6.002;2023-05-19T00:01:12;6.93;;;4.80;;
25950;SDS011;13748;52.240;6.002;2023-05-19T00:03:52;11.53;;;4.20;;
25950;SDS011;13748;52.240;6.002;2023-05-19T00:06:24;12.20;;;5.30;;
25950;SDS011;13748;52.240;6.002;2023-05-19T00:09:02;9.80;;;4.87;;
25950;SDS011;13748;52.240;6.002;2023-05-19T00:11:31;15.00;;;5.23;;
25950;SDS011;13748;52.240;6.002;2023-05-19T00:13:58;8.73;;;4.80;;
25950;SDS011;13748;52.240;6.002;2023-05-19T00:16:26;11.87;;;4.90;;
25950;SDS011;13748;52.240;6.002;2023-05-19T00:18:57;8.60;;;4.40;;
25950;SDS011;13748;52.240;6.002;2023-05-19T00:21:28;8.73;;;4.63;;
25950;SDS011;13748;52.240;6.002;2023-05-19T00:23:55;8.67;;;5.27;;
25950;SDS011;13748;52.240;6.002;2023-05-19T00:26:23;14.97;;;5.23;;
25950;SDS011;13748;52.240;6.002;2023-05-19T00:28:52;7.93;;;5.20;;
25950;SDS011;13748;52.240;6.002;2023-05-19T00:31:19;9.93;;;5.33;;
25950;SDS011;13748;52.240;6.002;2023-05-19T00:33:46;9.33;;;4.90;;
25950;SDS011;13748;52.240;6.002;2023-05-19T00:36:13;8.83;;;4.07;;
25950;SDS011;13748;52.240;6.002;2023-05-19T00:38:39;9.40;;;4.87;;
25950;SDS011;13748;52.240;6.002;2023-05-19T00:41:06;12.03;;;5.10;;
25950;SDS011;13748;52.240;6.002;2023-05-19T00:43:33;9.83;;;5.20;;
25950;SDS011;13748;52.240;6.002;2023-05-19T00:46:00;15.07;;;5.57;;
25950;SDS011;13748;52.240;6.002;2023-05-19T00:48:27;11.43;;;5.33;;
25950;SDS011;13748;52.240;6.002;2023-05-19T00:50:55;8.53;;;4.93;;
25950;SDS011;13748;52.240;6.002;2023-05-19T00:53:27;11.10;;;4.77;;
25950;SDS011;13748;52.240;6.002;2023-05-19T00:55:54;9.47;;;4.40;;
25950;SDS011;13748;52.240;6.002;2023-05-19T00:58:21;10.30;;;5.10;;
25950;SDS011;13748;52.240;6.002;2023-05-19T01:00:50;11.10;;;5.07;;
25950;SDS011;13748;52.240;6.002;2023-05-19T01:03:18;10.50;;;5.63;;
25950;SDS011;13748;52.240;6.002;2023-05-19T01:05:45;9.27;;;5.20;;
25950;SDS011;13748;52.240;6.002;2023-05-19T01:08:18;8.83;;;5.53;;
25950;SDS011;13748;52.240;6.002;2023-05-19T01:10:45;10.40;;;4.77;;
25950;SDS011;13748;52.240;6.002;2023-05-19T01:13:12;10.93;;;4.97;;
25950;SDS011;13748;52.240;6.002;2023-05-19T01:16:18;10.50;;;4.97;;
25950;SDS011;13748;52.240;6.002;2023-05-19T01:26:59;8.20;;;5.53;;
25950;SDS011;13748;52.240;6.002;2023-05-19T01:32:35;14.30;;;5.33;;
25950;SDS011;13748;52.240;6.002;2023-05-19T01:35:06;10.07;;;5.53;;
25950;SDS011;13748;52.240;6.002;2023-05-19T01:37:35;8.13;;;4.83;;
25950;SDS011;13748;52.240;6.002;2023-05-19T01:40:05;11.87;;;5.97;;
25950;SDS011;13748;52.240;6.002;2023-05-19T01:42:33;13.10;;;5.63;;
25950;SDS011;13748;52.240;6.002;2023-05-19T01:45:03;11.97;;;5.77;;
25950;SDS011;13748;52.240;6.002;2023-05-19T01:47:32;13.03;;;5.40;;
25950;SDS011;13748;52.240;6.002;2023-05-19T01:50:03;9.70;;;5.10;;
25950;SDS011;13748;52.240;6.002;2023-05-19T01:52:30;13.00;;;5.90;;
25950;SDS011;13748;52.240;6.002;2023-05-19T01:54:57;9.40;;;5.13;;
25950;SDS011;13748;52.240;6.002;2023-05-19T02:11:18;10.63;;;5.33;;
25950;SDS011;13748;52.240;6.002;2023-05-19T02:13:50;15.00;;;5.93;;
25950;SDS011;13748;52.240;6.002;2023-05-19T02:16:23;12.20;;;5.57;;
25950;SDS011;13748;52.240;6.002;2023-05-19T02:18:53;18.40;;;6.57;;
25950;SDS011;13748;52.240;6.002;2023-05-19T02:21:21;9.90;;;5.57;;
25950;SDS011;13748;52.240;6.002;2023-05-19T02:23:49;12.77;;;5.70;;
25950;SDS011;13748;52.240;6.002;2023-05-19T02:26:16;13.83;;;5.57;;
25950;SDS011;13748;52.240;6.002;2023-05-19T02:28:42;15.40;;;5.40;;
25950;SDS011;13748;52.240;6.002;2023-05-19T02:31:09;15.00;;;6.10;;
25950;SDS011;13748;52.240;6.002;2023-05-19T02:33:36;10.27;;;5.60;;
25950;SDS011;13748;52.240;6.002;2023-05-19T02:36:03;12.47;;;5.70;;
25950;SDS011;13748;52.240;6.002;2023-05-19T02:38:30;10.17;;;5.43;;
25950;SDS011;13748;52.240;6.002;2023-05-19T02:40:57;13.37;;;5.97;;
25950;SDS011;13748;52.240;6.002;2023-05-19T02:43:24;10.23;;;5.40;;
25950;SDS011;13748;52.240;6.002;2023-05-19T02:45:51;15.47;;;5.93;;
25950;SDS011;13748;52.240;6.002;2023-05-19T02:48:17;15.70;;;6.40;;
25950;SDS011;13748;52.240;6.002;2023-05-19T02:50:44;10.73;;;6.20;;
25950;SDS011;13748;52.240;6.002;2023-05-19T02:53:11;14.77;;;6.57;;
25950;SDS011;13748;52.240;6.002;2023-05-19T02:55:38;15.43;;;5.60;;
25950;SDS011;13748;52.240;6.002;2023-05-19T02:58:04;11.30;;;6.17;;
25950;SDS011;13748;52.240;6.002;2023-05-19T03:00:31;16.17;;;6.47;;
25950;SDS011;13748;52.240;6.002;2023-05-19T03:02:58;15.63;;;5.93;;
25950;SDS011;13748;52.240;6.002;2023-05-19T03:05:28;14.23;;;5.40;;
25950;SDS011;13748;52.240;6.002;2023-05-19T03:07:57;10.03;;;5.10;;
25950;SDS011;13748;52.240;6.002;2023-05-19T03:10:24;11.83;;;6.10;;
25950;SDS011;13748;52.240;6.002;2023-05-19T03:12:51;13.00;;;6.13;;
25950;SDS011;13748;52.240;6.002;2023-05-19T03:15:18;14.93;;;5.93;;
25950;SDS011;13748;52.240;6.002;2023-05-19T03:17:45;15.93;;;6.50;;
25950;SDS011;13748;52.240;6.002;2023-05-19T03:20:12;15.87;;;6.80;;
25950;SDS011;13748;52.240;6.002;2023-05-19T03:22:40;15.07;;;6.50;;
25950;SDS011;13748;52.240;6.002;2023-05-19T03:25:08;14.10;;;6.63;;
25950;SDS011;13748;52.240;6.002;2023-05-19T03:27:35;15.40;;;7.00;;
25950;SDS011;13748;52.240;6.002;2023-05-19T03:30:01;11.50;;;6.13;;
25950;SDS011;13748;52.240;6.002;2023-05-19T03:32:31;17.33;;;6.47;;
25950;SDS011;13748;52.240;6.002;2023-05-19T03:34:59;13.83;;;6.43;;
25950;SDS011;13748;52.240;6.002;2023-05-19T03:37:25;12.60;;;6.30;;
25950;SDS011;13748;52.240;6.002;2023-05-19T03:39:52;17.03;;;6.70;;
25950;SDS011;13748;52.240;6.002;2023-05-19T03:42:19;15.20;;;6.63;;
25950;SDS011;13748;52.240;6.002;2023-05-19T03:44:46;18.50;;;6.37;;
25950;SDS011;13748;52.240;6.002;2023-05-19T03:47:12;11.60;;;5.97;;
25950;SDS011;13748;52.240;6.002;2023-05-19T03:49:39;14.77;;;6.60;;
25950;SDS011;13748;52.240;6.002;2023-05-19T03:52:06;12.37;;;5.97;;
25950;SDS011;13748;52.240;6.002;2023-05-19T03:54:33;13.00;;;6.57;;
25950;SDS011;13748;52.240;6.002;2023-05-19T03:57:00;13.40;;;6.60;;
25950;SDS011;13748;52.240;6.002;2023-05-19T03:59:27;16.47;;;6.73;;
25950;SDS011;13748;52.240;6.002;2023-05-19T04:01:54;23.57;;;7.07;;
25950;SDS011;13748;52.240;6.002;2023-05-19T04:04:23;16.80;;;7.80;;
25950;SDS011;13748;52.240;6.002;2023-05-19T04:06:49;16.90;;;7.17;;
25950;SDS011;13748;52.240;6.002;2023-05-19T04:09:16;18.17;;;6.80;;
25950;SDS011;13748;52.240;6.002;2023-05-19T04:11:44;17.80;;;6.67;;
25950;SDS011;13748;52.240;6.002;2023-05-19T04:14:11;18.10;;;7.20;;
25950;SDS011;13748;52.240;6.002;2023-05-19T04:16:38;15.50;;;6.40;;
25950;SDS011;13748;52.240;6.002;2023-05-19T04:19:05;19.17;;;7.77;;
25950;SDS011;13748;52.240;6.002;2023-05-19T04:21:32;18.10;;;7.33;;
25950;SDS011;13748;52.240;6.002;2023-05-19T04:23:59;15.80;;;6.97;;
25950;SDS011;13748;52.240;6.002;2023-05-19T04:26:26;17.37;;;7.27;;
25950;SDS011;13748;52.240;6.002;2023-05-19T04:28:56;13.93;;;6.50;;
25950;SDS011;13748;52.240;6.002;2023-05-19T04:31:22;15.50;;;7.37;;
25950;SDS011;13748;52.240;6.002;2023-05-19T04:33:49;14.77;;;6.60;;
25950;SDS011;13748;52.240;6.002;2023-05-19T04:36:18;13.23;;;7.13;;
25950;SDS011;13748;52.240;6.002;2023-05-19T04:38:46;15.20;;;6.43;;
25950;SDS011;13748;52.240;6.002;2023-05-19T04:41:13;14.77;;;7.27;;
25950;SDS011;13748;52.240;6.002;2023-05-19T04:43:41;12.67;;;6.57;;
25950;SDS011;13748;52.240;6.002;2023-05-19T04:46:10;14.17;;;6.73;;
25950;SDS011;13748;52.240;6.002;2023-05-19T04:48:39;18.27;;;6.93;;
25950;SDS011;13748;52.240;6.002;2023-05-19T04:51:06;12.30;;;6.47;;
25950;SDS011;13748;52.240;6.002;2023-05-19T04:53:33;13.37;;;6.70;;
25950;SDS011;13748;52.240;6.002;2023-05-19T04:56:00;14.77;;;6.73;;
25950;SDS011;13748;52.240;6.002;2023-05-19T04:58:27;15.73;;;6.90;;
25950;SDS011;13748;52.240;6.002;2023-05-19T05:00:54;13.13;;;7.00;;
25950;SDS011;13748;52.240;6.002;2023-05-19T05:03:21;13.07;;;6.50;;
25950;SDS011;13748;52.240;6.002;2023-05-19T05:05:51;13.10;;;6.40;;
25950;SDS011;13748;52.240;6.002;2023-05-19T05:08:18;13.17;;;6.37;;
25950;SDS011;13748;52.240;6.002;2023-05-19T05:10:48;13.77;;;6.30;;
25950;SDS011;13748;52.240;6.002;2023-05-19T05:13:21;16.43;;;6.67;;
25950;SDS011;13748;52.240;6.002;2023-05-19T05:15:49;15.73;;;7.23;;
25950;SDS011;13748;52.240;6.002;2023-05-19T05:18:17;12.77;;;6.47;;
25950;SDS011;13748;52.240;6.002;2023-05-19T05:20:44;13.23;;;6.50;;
25950;SDS011;13748;52.240;6.002;2023-05-19T05:23:12;15.10;;;7.37;;
25950;SDS011;13748;52.240;6.002;2023-05-19T05:25:42;14.17;;;6.43;;
25950;SDS011;13748;52.240;6.002;2023-05-19T05:28:10;12.77;;;6.40;;
25950;SDS011;13748;52.240;6.002;2023-05-19T05:30:36;12.60;;;6.23;;
25950;SDS011;13748;52.240;6.002;2023-05-19T05:33:03;14.13;;;6.77;;
25950;SDS011;13748;52.240;6.002;2023-05-19T05:35:31;13.90;;;7.03;;
25950;SDS011;13748;52.240;6.002;2023-05-19T05:37:58;14.03;;;7.37;;
25950;SDS011;13748;52.240;6.002;2023-05-19T05:40:26;15.43;;;6.57;;
25950;SDS011;13748;52.240;6.002;2023-05-19T05:42:53;15.57;;;7.73;;
25950;SDS011;13748;52.240;6.002;2023-05-19T05:45:23;9.67;;;6.00;;
25950;SDS011;13748;52.240;6.002;2023-05-19T05:47:51;11.50;;;6.77;;
25950;SDS011;13748;52.240;6.002;2023-05-19T05:50:18;8.17;;;5.13;;
25950;SDS011;13748;52.240;6.002;2023-05-19T05:52:45;14.87;;;6.30;;
25950;SDS011;13748;52.240;6.002;2023-05-19T05:55:13;10.57;;;5.67;;
25950;SDS011;13748;52.240;6.002;2023-05-19T05:57:42;10.00;;;4.65;;
25950;SDS011;13748;52.240;6.002;2023-05-19T06:00:09;11.30;;;5.20;;
25950;SDS011;13748;52.240;6.002;2023-05-19T06:02:41;8.75;;;5.00;;
25950;SDS011;13748;52.240;6.002;2023-05-19T06:05:10;12.93;;;5.82;;
25950;SDS011;13748;52.240;6.002;2023-05-19T06:07:37;9.60;;;5.15;;
25950;SDS011;13748;52.240;6.002;2023-05-19T06:10:05;13.45;;;6.10;;
25950;SDS011;13748;52.240;6.002;2023-05-19T06:12:33;10.02;;;5.05;;
25950;SDS011;13748;52.240;6.002;2023-05-19T06:15:03;8.45;;;5.10;;
25950;SDS011;13748;52.240;6.002;2023-05-19T06:17:31;7.78;;;5.80;;
25950;SDS011;13748;52.240;6.002;2023-05-19T06:20:05;10.40;;;5.13;;
25950;SDS011;13748;52.240;6.002;2023-05-19T06:22:33;9.45;;;4.78;;
25950;SDS011;13748;52.240;6.002;2023-05-19T06:25:01;8.93;;;5.05;;
25950;SDS011;13748;52.240;6.002;2023-05-19T06:27:28;9.65;;;5.22;;
25950;SDS011;13748;52.240;6.002;2023-05-19T06:29:59;8.30;;;5.20;;
25950;SDS011;13748;52.240;6.002;2023-05-19T06:32:26;7.72;;;5.00;;
25950;SDS011;13748;52.240;6.002;2023-05-19T06:34:54;7.47;;;4.70;;
25950;SDS011;13748;52.240;6.002;2023-05-19T06:37:21;11.75;;;5.05;;
25950;SDS011;13748;52.240;6.002;2023-05-19T06:39:50;7.25;;;4.50;;
25950;SDS011;13748;52.240;6.002;2023-05-19T06:42:18;10.35;;;4.95;;
25950;SDS011;13748;52.240;6.002;2023-05-19T06:44:48;6.75;;;4.38;;
25950;SDS011;13748;52.240;6.002;2023-05-19T06:47:18;11.05;;;4.63;;
25950;SDS011;13748;52.240;6.002;2023-05-19T06:49:45;6.82;;;4.30;;
25950;SDS011;13748;52.240;6.002;2023-05-19T06:52:16;8.13;;;4.38;;
25950;SDS011;13748;52.240;6.002;2023-05-19T06:54:43;9.02;;;4.85;;
25950;SDS011;13748;52.240;6.002;2023-05-19T06:57:09;7.47;;;4.88;;
25950;SDS011;13748;52.240;6.002;2023-05-19T06:59:36;7.85;;;4.47;;
25950;SDS011;13748;52.240;6.002;2023-05-19T07:02:06;8.85;;;4.03;;
25950;SDS011;13748;52.240;6.002;2023-05-19T07:04:33;6.28;;;4.35;;
25950;SDS011;13748;52.240;6.002;2023-05-19T07:07:00;6.93;;;4.00;;
25950;SDS011;13748;52.240;6.002;2023-05-19T07:09:28;7.43;;;4.60;;
25950;SDS011;13748;52.240;6.002;2023-05-19T07:11:55;6.22;;;4.20;;
25950;SDS011;13748;52.240;6.002;2023-05-19T07:14:23;9.35;;;4.30;;
25950;SDS011;13748;52.240;6.002;2023-05-19T07:16:50;9.88;;;4.50;;
25950;SDS011;13748;52.240;6.002;2023-05-19T07:19:17;6.55;;;4.32;;
25950;SDS011;13748;52.240;6.002;2023-05-19T07:21:45;9.65;;;4.75;;
25950;SDS011;13748;52.240;6.002;2023-05-19T07:24:13;6.43;;;4.32;;
25950;SDS011;13748;52.240;6.002;2023-05-19T07:26:40;7.75;;;4.55;;
25950;SDS011;13748;52.240;6.002;2023-05-19T07:29:08;7.80;;;4.47;;
25950;SDS011;13748;52.240;6.002;2023-05-19T07:31:35;5.15;;;4.05;;
25950;SDS011;13748;52.240;6.002;2023-05-19T07:34:02;8.10;;;4.15;;
25950;SDS011;13748;52.240;6.002;2023-05-19T07:36:30;9.10;;;4.13;;
25950;SDS011;13748;52.240;6.002;2023-05-19T07:38:57;5.47;;;3.80;;
25950;SDS011;13748;52.240;6.002;2023-05-19T07:41:24;5.93;;;3.58;;
25950;SDS011;13748;52.240;6.002;2023-05-19T07:43:51;6.38;;;3.78;;
25950;SDS011;13748;52.240;6.002;2023-05-19T07:46:21;7.35;;;3.75;;
25950;SDS011;13748;52.240;6.002;2023-05-19T07:48:48;10.50;;;3.80;;
25950;SDS011;13748;52.240;6.002;2023-05-19T07:51:15;7.05;;;3.50;;
25950;SDS011;13748;52.240;6.002;2023-05-19T07:53:42;5.75;;;4.05;;
25950;SDS011;13748;52.240;6.002;2023-05-19T07:56:09;6.43;;;3.45;;
25950;SDS011;13748;52.240;6.002;2023-05-19T07:58:36;5.07;;;3.38;;
25950;SDS011;13748;52.240;6.002;2023-05-19T08:01:02;6.47;;;3.95;;
25950;SDS011;13748;52.240;6.002;2023-05-19T08:03:29;7.63;;;3.10;;
25950;SDS011;13748;52.240;6.002;2023-05-19T08:05:57;7.70;;;3.53;;
25950;SDS011;13748;52.240;6.002;2023-05-19T08:08:24;3.40;;;2.92;;
25950;SDS011;13748;52.240;6.002;2023-05-19T08:10:50;5.60;;;3.30;;
25950;SDS011;13748;52.240;6.002;2023-05-19T08:13:17;6.32;;;3.65;;
25950;SDS011;13748;52.240;6.002;2023-05-19T08:15:44;4.47;;;2.33;;
25950;SDS011;13748;52.240;6.002;2023-05-19T08:18:11;5.95;;;2.63;;
25950;SDS011;13748;52.240;6.002;2023-05-19T08:20:38;6.00;;;2.60;;
25950;SDS011;13748;52.240;6.002;2023-05-19T08:23:04;5.70;;;2.88;;
25950;SDS011;13748;52.240;6.002;2023-05-19T08:25:31;6.20;;;2.97;;
25950;SDS011;13748;52.240;6.002;2023-05-19T08:27:58;3.78;;;2.50;;
25950;SDS011;13748;52.240;6.002;2023-05-19T08:30:25;4.57;;;2.22;;
25950;SDS011;13748;52.240;6.002;2023-05-19T08:32:52;2.17;;;1.83;;
25950;SDS011;13748;52.240;6.002;2023-05-19T08:35:18;5.45;;;2.53;;
25950;SDS011;13748;52.240;6.002;2023-05-19T08:37:45;5.40;;;2.38;;
25950;SDS011;13748;52.240;6.002;2023-05-19T08:40:14;3.78;;;2.10;;
25950;SDS011;13748;52.240;6.002;2023-05-19T08:42:45;4.22;;;2.10;;
25950;SDS011;13748;52.240;6.002;2023-05-19T08:45:13;5.40;;;2.08;;
25950;SDS011;13748;52.240;6.002;2023-05-19T08:47:40;3.58;;;2.00;;
25950;SDS011;13748;52.240;6.002;2023-05-19T08:50:08;5.85;;;2.70;;
25950;SDS011;13748;52.240;6.002;2023-05-19T08:58:02;6.60;;;2.40;;
25950;SDS011;13748;52.240;6.002;2023-05-19T09:00:29;6.97;;;2.08;;
25950;SDS011;13748;52.240;6.002;2023-05-19T09:02:58;5.75;;;2.08;;
25950;SDS011;13748;52.240;6.002;2023-05-19T09:05:43;4.50;;;2.08;;
25950;SDS011;13748;52.240;6.002;2023-05-19T09:08:11;6.95;;;4.28;;
25950;SDS011;13748;52.240;6.002;2023-05-19T09:10:38;2.13;;;1.48;;
25950;SDS011;13748;52.240;6.002;2023-05-19T09:13:06;6.65;;;2.70;;
25950;SDS011;13748;52.240;6.002;2023-05-19T09:15:32;5.65;;;2.00;;
25950;SDS011;13748;52.240;6.002;2023-05-19T09:18:09;4.43;;;1.70;;
25950;SDS011;13748;52.240;6.002;2023-05-19T09:20:43;7.95;;;2.50;;
25950;SDS011;13748;52.240;6.002;2023-05-19T09:23:12;5.88;;;2.08;;
25950;SDS011;13748;52.240;6.002;2023-05-19T09:25:52;5.45;;;2.22;;
25950;SDS011;13748;52.240;6.002;2023-05-19T09:28:25;3.83;;;2.20;;
25950;SDS011;13748;52.240;6.002;2023-05-19T09:30:58;4.20;;;2.20;;
25950;SDS011;13748;52.240;6.002;2023-05-19T09:33:36;5.68;;;2.60;;
25950;SDS011;13748;52.240;6.002;2023-05-19T09:36:04;7.90;;;2.60;;
25950;SDS011;13748;52.240;6.002;2023-05-19T09:38:33;5.60;;;2.45;;
25950;SDS011;13748;52.240;6.002;2023-05-19T09:41:01;5.43;;;2.20;;
25950;SDS011;13748;52.240;6.002;2023-05-19T09:43:29;5.93;;;2.25;;
25950;SDS011;13748;52.240;6.002;2023-05-19T09:46:03;2.80;;;1.90;;
25950;SDS011;13748;52.240;6.002;2023-05-19T09:48:32;6.05;;;1.70;;
25950;SDS011;13748;52.240;6.002;2023-05-19T09:51:00;3.63;;;1.90;;
25950;SDS011;13748;52.240;6.002;2023-05-19T09:53:30;6.43;;;2.08;;
25950;SDS011;13748;52.240;6.002;2023-05-19T09:56:00;7.03;;;2.05;;
25950;SDS011;13748;52.240;6.002;2023-05-19T09:58:31;5.22;;;2.50;;
25950;SDS011;13748;52.240;6.002;2023-05-19T10:01:00;6.22;;;2.00;;
25950;SDS011;13748;52.240;6.002;2023-05-19T10:03:28;5.03;;;2.67;;
25950;SDS011;13748;52.240;6.002;2023-05-19T10:05:58;4.20;;;2.08;;
25950;SDS011;13748;52.240;6.002;2023-05-19T10:08:26;6.15;;;2.58;;
25950;SDS011;13748;52.240;6.002;2023-05-19T10:10:55;5.70;;;2.30;;
25950;SDS011;13748;52.240;6.002;2023-05-19T10:13:23;4.82;;;2.10;;
25950;SDS011;13748;52.240;6.002;2023-05-19T10:15:50;4.53;;;2.85;;
25950;SDS011;13748;52.240;6.002;2023-05-19T10:18:24;6.22;;;2.40;;
25950;SDS011;13748;52.240;6.002;2023-05-19T10:20:52;10.77;;;3.33;;
25950;SDS011;13748;52.240;6.002;2023-05-19T10:23:19;5.35;;;2.28;;
25950;SDS011;13748;52.240;6.002;2023-05-19T10:25:47;6.18;;;2.35;;
25950;SDS011;13748;52.240;6.002;2023-05-19T10:28:17;6.65;;;2.45;;
25950;SDS011;13748;52.240;6.002;2023-05-19T10:30:49;6.43;;;2.17;;
25950;SDS011;13748;52.240;6.002;2023-05-19T10:33:18;4.15;;;2.00;;
25950;SDS011;13748;52.240;6.002;2023-05-19T10:39:03;3.83;;;2.13;;
25950;SDS011;13748;52.240;6.002;2023-05-19T10:41:37;4.13;;;1.90;;
25950;SDS011;13748;52.240;6.002;2023-05-19T10:44:38;4.22;;;2.40;;
25950;SDS011;13748;52.240;6.002;2023-05-19T10:47:09;4.65;;;2.42;;
25950;SDS011;13748;52.240;6.002;2023-05-19T10:49:38;7.78;;;2.33;;
25950;SDS011;13748;52.240;6.002;2023-05-19T10:52:18;6.68;;;2.78;;
25950;SDS011;13748;52.240;6.002;2023-05-19T10:54:50;6.05;;;2.80;;
25950;SDS011;13748;52.240;6.002;2023-05-19T10:57:26;2.33;;;2.00;;
25950;SDS011;13748;52.240;6.002;2023-05-19T10:59:54;4.60;;;2.38;;
25950;SDS011;13748;52.240;6.002;2023-05-19T11:05:09;6.45;;;2.40;;
25950;SDS011;13748;52.240;6.002;2023-05-19T11:07:42;6.50;;;2.30;;
25950;SDS011;13748;52.240;6.002;2023-05-19T11:10:10;3.53;;;2.65;;
25950;SDS011;13748;52.240;6.002;2023-05-19T11:12:41;4.07;;;2.10;;
25950;SDS011;13748;52.240;6.002;2023-05-19T11:15:11;3.45;;;2.25;;
25950;SDS011;13748;52.240;6.002;2023-05-19T11:17:44;6.38;;;2.25;;
25950;SDS011;13748;52.240;6.002;2023-05-19T11:20:23;5.38;;;2.55;;
25950;SDS011;13748;52.240;6.002;2023-05-19T11:23:09;3.50;;;2.30;;
25950;SDS011;13748;52.240;6.002;2023-05-19T11:25:46;5.28;;;2.28;;
25950;SDS011;13748;52.240;6.002;2023-05-19T11:28:15;4.65;;;2.28;;
25950;SDS011;13748;52.240;6.002;2023-05-19T11:30:45;5.18;;;1.95;;
25950;SDS011;13748;52.240;6.002;2023-05-19T11:33:17;3.90;;;1.98;;
25950;SDS011;13748;52.240;6.002;2023-05-19T11:35:49;5.45;;;2.30;;
25950;SDS011;13748;52.240;6.002;2023-05-19T11:38:17;7.25;;;2.47;;
25950;SDS011;13748;52.240;6.002;2023-05-19T11:40:45;4.53;;;2.03;;
25950;SDS011;13748;52.240;6.002;2023-05-19T11:43:13;5.15;;;2.20;;
25950;SDS011;13748;52.240;6.002;2023-05-19T11:45:40;4.82;;;2.08;;
25950;SDS011;13748;52.240;6.002;2023-05-19T11:48:11;4.68;;;2.17;;
25950;SDS011;13748;52.240;6.002;2023-05-19T11:50:41;5.20;;;2.20;;
25950;SDS011;13748;52.240;6.002;2023-05-19T11:53:12;6.65;;;2.97;;
25950;SDS011;13748;52.240;6.002;2023-05-19T11:55:41;5.25;;;2.13;;
25950;SDS011;13748;52.240;6.002;2023-05-19T11:58:10;4.25;;;2.08;;
25950;SDS011;13748;52.240;6.002;2023-05-19T12:00:38;5.72;;;2.70;;
25950;SDS011;13748;52.240;6.002;2023-05-19T12:03:06;5.68;;;2.40;;
25950;SDS011;13748;52.240;6.002;2023-05-19T12:05:35;4.20;;;2.10;;
25950;SDS011;13748;52.240;6.002;2023-05-19T12:08:09;3.55;;;2.00;;
25950;SDS011;13748;52.240;6.002;2023-05-19T12:10:36;4.45;;;2.10;;
25950;SDS011;13748;52.240;6.002;2023-05-19T12:13:10;4.43;;;2.10;;
25950;SDS011;13748;52.240;6.002;2023-05-19T12:15:37;3.95;;;2.50;;
25950;SDS011;13748;52.240;6.002;2023-05-19T12:18:05;6.45;;;2.35;;
25950;SDS011;13748;52.240;6.002;2023-05-19T12:20:35;7.90;;;2.33;;
25950;SDS011;13748;52.240;6.002;2023-05-19T12:23:02;5.10;;;2.50;;
25950;SDS011;13748;52.240;6.002;2023-05-19T12:25:29;3.63;;;2.20;;
25950;SDS011;13748;52.240;6.002;2023-05-19T12:27:58;3.70;;;2.30;;
25950;SDS011;13748;52.240;6.002;2023-05-19T12:30:29;5.03;;;2.08;;
25950;SDS011;13748;52.240;6.002;2023-05-19T12:32:57;3.70;;;2.22;;
25950;SDS011;13748;52.240;6.002;2023-05-19T12:35:24;4.20;;;2.03;;
25950;SDS011;13748;52.240;6.002;2023-05-19T12:37:55;6.05;;;2.85;;
25950;SDS011;13748;52.240;6.002;2023-05-19T12:40:23;3.70;;;2.08;;
25950;SDS011;13748;52.240;6.002;2023-05-19T12:42:51;6.78;;;2.42;;
25950;SDS011;13748;52.240;6.002;2023-05-19T12:45:24;7.43;;;2.50;;
25950;SDS011;13748;52.240;6.002;2023-05-19T12:47:53;4.75;;;2.30;;
25950;SDS011;13748;52.240;6.002;2023-05-19T12:50:20;5.95;;;2.30;;
25950;SDS011;13748;52.240;6.002;2023-05-19T12:52:48;4.22;;;2.05;;
25950;SDS011;13748;52.240;6.002;2023-05-19T12:55:18;6.63;;;2.40;;
25950;SDS011;13748;52.240;6.002;2023-05-19T12:57:49;5.63;;;2.20;;
25950;SDS011;13748;52.240;6.002;2023-05-19T13:00:22;6.38;;;2.38;;
25950;SDS011;13748;52.240;6.002;2023-05-19T13:02:55;4.72;;;2.08;;
25950;SDS011;13748;52.240;6.002;2023-05-19T13:05:25;2.95;;;2.10;;
25950;SDS011;13748;52.240;6.002;2023-05-19T13:07:56;3.70;;;2.05;;
25950;SDS011;13748;52.240;6.002;2023-05-19T13:10:26;4.32;;;2.00;;
25950;SDS011;13748;52.240;6.002;2023-05-19T13:13:00;8.32;;;2.42;;
25950;SDS011;13748;52.240;6.002;2023-05-19T13:15:28;4.30;;;2.00;;
25950;SDS011;13748;52.240;6.002;2023-05-19T13:18:06;4.68;;;1.85;;
25950;SDS011;13748;52.240;6.002;2023-05-19T13:20:35;6.72;;;2.20;;
25950;SDS011;13748;52.240;6.002;2023-05-19T13:23:03;4.47;;;1.92;;
25950;SDS011;13748;52.240;6.002;2023-05-19T13:25:31;4.38;;;2.00;;
25950;SDS011;13748;52.240;6.002;2023-05-19T13:27:59;3.47;;;1.73;;
25950;SDS011;13748;52.240;6.002;2023-05-19T13:30:29;4.93;;;1.90;;
25950;SDS011;13748;52.240;6.002;2023-05-19T13:32:57;5.85;;;2.47;;
25950;SDS011;13748;52.240;6.002;2023-05-19T13:35:24;5.18;;;2.10;;
25950;SDS011;13748;52.240;6.002;2023-05-19T13:37:50;10.73;;;2.15;;
25950;SDS011;13748;52.240;6.002;2023-05-19T13:40:17;5.07;;;1.90;;
25950;SDS011;13748;52.240;6.002;2023-05-19T13:42:44;6.95;;;2.13;;
25950;SDS011;13748;52.240;6.002;2023-05-19T13:45:11;5.05;;;1.98;;
25950;SDS011;13748;52.240;6.002;2023-05-19T13:47:38;7.95;;;2.30;;
25950;SDS011;13748;52.240;6.002;2023-05-19T13:50:05;4.70;;;1.75;;
25950;SDS011;13748;52.240;6.002;2023-05-19T13:52:32;4.15;;;1.80;;
25950;SDS011;13748;52.240;6.002;2023-05-19T13:54:59;3.70;;;1.90;;
25950;SDS011;13748;52.240;6.002;2023-05-19T13:57:26;2.25;;;1.65;;
25950;SDS011;13748;52.240;6.002;2023-05-19T13:59:53;3.92;;;1.70;;
25950;SDS011;13748;52.240;6.002;2023-05-19T14:02:29;5.80;;;1.95;;
25950;SDS011;13748;52.240;6.002;2023-05-19T14:04:56;4.80;;;1.80;;
25950;SDS011;13748;52.240;6.002;2023-05-19T14:07:23;4.63;;;2.10;;
25950;SDS011;13748;52.240;6.002;2023-05-19T14:09:51;4.80;;;1.92;;
25950;SDS011;13748;52.240;6.002;2023-05-19T14:12:18;7.72;;;2.00;;
25950;SDS011;13748;52.240;6.002;2023-05-19T14:14:50;4.45;;;1.73;;
25950;SDS011;13748;52.240;6.002;2023-05-19T14:17:17;4.45;;;2.13;;
25950;SDS011;13748;52.240;6.002;2023-05-19T14:19:44;3.35;;;1.80;;
25950;SDS011;13748;52.240;6.002;2023-05-19T14:22:10;3.92;;;1.67;;
25950;SDS011;13748;52.240;6.002;2023-05-19T14:24:38;6.78;;;2.42;;
25950;SDS011;13748;52.240;6.002;2023-05-19T14:27:06;4.50;;;2.10;;
25950;SDS011;13748;52.240;6.002;2023-05-19T14:29:33;5.15;;;2.00;;
25950;SDS011;13748;52.240;6.002;2023-05-19T14:32:00;3.15;;;2.13;;
25950;SDS011;13748;52.240;6.002;2023-05-19T14:34:28;7.57;;;1.83;;
25950;SDS011;13748;52.240;6.002;2023-05-19T14:36:55;6.50;;;2.25;;
25950;SDS011;13748;52.240;6.002;2023-05-19T14:39:22;3.85;;;2.00;;
25950;SDS011;13748;52.240;6.002;2023-05-19T14:41:49;4.28;;;2.05;;
25950;SDS011;13748;52.240;6.002;2023-05-19T14:44:17;4.85;;;2.10;;
25950;SDS011;13748;52.240;6.002;2023-05-19T14:46:44;6.55;;;2.03;;
25950;SDS011;13748;52.240;6.002;2023-05-19T14:49:10;5.18;;;2.25;;
25950;SDS011;13748;52.240;6.002;2023-05-19T14:51:37;5.78;;;2.50;;
25950;SDS011;13748;52.240;6.002;2023-05-19T14:54:04;5.47;;;2.15;;
25950;SDS011;13748;52.240;6.002;2023-05-19T14:56:31;4.88;;;2.20;;
25950;SDS011;13748;52.240;6.002;2023-05-19T14:58:57;3.70;;;2.05;;
25950;SDS011;13748;52.240;6.002;2023-05-19T15:01:24;3.65;;;2.00;;
25950;SDS011;13748;52.240;6.002;2023-05-19T15:03:51;4.53;;;2.22;;
25950;SDS011;13748;52.240;6.002;2023-05-19T15:06:18;4.57;;;1.92;;
25950;SDS011;13748;52.240;6.002;2023-05-19T15:08:45;6.00;;;2.67;;
25950;SDS011;13748;52.240;6.002;2023-05-19T15:11:12;4.07;;;2.00;;
25950;SDS011;13748;52.240;6.002;2023-05-19T15:13:39;3.83;;;1.90;;
25950;SDS011;13748;52.240;6.002;2023-05-19T15:16:06;4.00;;;2.00;;
25950;SDS011;13748;52.240;6.002;2023-05-19T15:18:43;5.35;;;2.33;;
25950;SDS011;13748;52.240;6.002;2023-05-19T15:21:10;7.95;;;2.10;;
25950;SDS011;13748;52.240;6.002;2023-05-19T15:23:37;3.83;;;2.15;;
25950;SDS011;13748;52.240;6.002;2023-05-19T15:26:04;6.78;;;2.38;;
25950;SDS011;13748;52.240;6.002;2023-05-19T15:28:31;5.97;;;2.03;;